Portada
METAR-TAF:

METAR-TAF

Aeropuertos :

Aeropuerto de Helsinki-Vantaa

Helsinki, Finlandia

latitud: 60-19N, longitud: 024-58E, altitud: 51 m

Observación

El informe se hizo hace 26 minutos, a las 00:20 UTC
Viento 8 kt del noroeste
Temperatura 7°C
Humedad 66%
Presión 1026 hPa
Visibilidad 10 km o más
sin nubes por debajo de 1500 m y sin presencia de cumulonimbus.

METAR: EFHK 290020Z 32008KT CAVOK 07/01 Q1026 NOSIG

Hora: 03:46 (00:46 UTC)

Pronóstico

El informe se hizo hace 1 hora y 19 minutos, a las 23:27 UTC
Pronóstico válido del 29 a las 00 UTC al 29 a las 24 UTC
Viento 7 kt del norte-noroeste
Visibilidad 10 km o más
sin nubes por debajo de 1500 m y sin presencia de cumulonimbus.

TAF: EFHK 282327Z 2900/2924 33007KT CAVOK

Observaciones y pronósticos meteorológicos de más de 4000 aeropuertos (mensajes METAR y TAF).

Los puntos amarillos y rojos representan las estaciones disponibles.

Ponga el ratón en el punto deseado para ver el nombre de la estación.

Haga clic para ver las observaciones y los pronósticos meteorológicos.

Para cambiar el mapa : haga clic en los botones verdes con una cruz de color negro para hacer un zoom, en el botón verde con un guión para alejar o en las flechas verdes para mapas adyacentes.


METAR-TAF: